createdAt,value
2023-02-13T00:00:12.603Z,102440.44
2023-02-13T00:03:14.564Z,102436.97
2023-02-13T00:06:16.845Z,102422.59
2023-02-13T00:09:18.569Z,102433.44
2023-02-13T00:12:21.617Z,102436.47
2023-02-13T00:15:23.301Z,102429.78
2023-02-13T00:18:26.272Z,102427.44
2023-02-13T00:21:28.208Z,102426.00
2023-02-13T00:24:29.876Z,102424.53
2023-02-13T00:27:33.911Z,102423.53
2023-02-13T00:30:36.779Z,102420.31
2023-02-13T00:33:39.077Z,102434.50
2023-02-13T00:36:40.733Z,102418.47
2023-02-13T00:39:42.441Z,102431.19
2023-02-13T00:42:46.431Z,102420.31
2023-02-13T00:45:48.117Z,102419.38
2023-02-13T00:48:49.859Z,102421.44
2023-02-13T00:51:51.608Z,102427.06
2023-02-13T00:54:53.311Z,102423.28
2023-02-13T00:57:56.350Z,102432.59
2023-02-13T01:00:58.426Z,102425.94
2023-02-13T01:04:00.343Z,102431.56
2023-02-13T01:07:02.687Z,102422.44
2023-02-13T01:10:04.977Z,102430.97
2023-02-13T01:13:08.818Z,102425.03
2023-02-13T01:16:11.071Z,102430.66
2023-02-13T01:19:12.860Z,102424.19
2023-02-13T01:22:14.623Z,102426.13
2023-02-13T01:25:16.719Z,102424.03
2023-02-13T01:28:19.788Z,102425.84
2023-02-13T01:31:21.612Z,102418.75
2023-02-13T01:34:25.328Z,102421.16
2023-02-13T01:37:27.034Z,102423.44
2023-02-13T01:40:30.097Z,102424.38
2023-02-13T01:43:51.195Z,102423.47
2023-02-13T01:46:54.747Z,102413.56
2023-02-13T01:50:06.950Z,102419.84
2023-02-13T01:53:12.534Z,102422.44
2023-02-13T01:56:18.602Z,102414.06
2023-02-13T01:59:27.025Z,102410.25
2023-02-13T02:02:31.522Z,102406.84
2023-02-13T02:05:36.615Z,102414.84
2023-02-13T02:08:39.096Z,102418.38
2023-02-13T02:11:50.257Z,102414.84
2023-02-13T02:14:57.785Z,102413.22
2023-02-13T02:17:59.638Z,102414.09
2023-02-13T02:21:58.508Z,102415.91
2023-02-13T02:25:26.243Z,102406.22
2023-02-13T02:28:52.279Z,102398.72
2023-02-13T02:32:16.235Z,102400.13
2023-02-13T02:35:27.407Z,102404.88
2023-02-13T02:38:45.571Z,102407.38
2023-02-13T02:42:07.725Z,102402.72
2023-02-13T02:45:26.443Z,102400.28
2023-02-13T02:48:52.438Z,102401.81
2023-02-13T02:52:06.326Z,102400.09
2023-02-13T02:55:18.979Z,102393.84
2023-02-13T02:58:51.941Z,102409.72
2023-02-13T03:02:15.173Z,102400.50
2023-02-13T03:05:41.151Z,102410.31
2023-02-13T03:09:05.093Z,102404.50
2023-02-13T03:12:27.857Z,102404.78
2023-02-13T03:15:30.149Z,102403.06
2023-02-13T03:18:53.786Z,102398.91
2023-02-13T03:22:19.736Z,102401.63
2023-02-13T03:25:37.290Z,102412.88
2023-02-13T03:29:05.770Z,102419.88
2023-02-13T03:32:18.073Z,102412.84
2023-02-13T03:35:49.666Z,102418.56
2023-02-13T03:38:59.383Z,102414.00
2023-02-13T03:42:05.374Z,102419.09
2023-02-13T03:45:31.369Z,102421.00
2023-02-13T03:48:55.927Z,102425.03
2023-02-13T03:52:02.898Z,102423.44
2023-02-13T03:55:28.668Z,102418.44
2023-02-13T03:58:53.584Z,102423.00
2023-02-13T04:02:02.617Z,102416.34
2023-02-13T04:05:08.717Z,102417.97
2023-02-13T04:08:11.020Z,102415.56
2023-02-13T04:11:18.844Z,102416.78
2023-02-13T04:14:24.062Z,102417.03
2023-02-13T04:17:36.041Z,102407.81
2023-02-13T04:20:38.901Z,102404.25
2023-02-13T04:23:40.605Z,102415.22
2023-02-13T04:26:45.447Z,102419.97
2023-02-13T04:29:47.064Z,102414.78
2023-02-13T04:32:49.020Z,102413.94
2023-02-13T04:35:50.874Z,102408.41
2023-02-13T04:38:52.686Z,102415.38
2023-02-13T04:41:55.782Z,102413.63
2023-02-13T04:44:57.515Z,102413.56
2023-02-13T04:47:59.193Z,102412.03
2023-02-13T04:51:00.913Z,102414.44
2023-02-13T04:54:02.780Z,102406.66
2023-02-13T04:57:05.822Z,102406.06
2023-02-13T05:00:09.002Z,102402.13
2023-02-13T05:03:12.354Z,102403.75
2023-02-13T05:06:14.488Z,102402.75
2023-02-13T05:09:16.151Z,102398.22
2023-02-13T05:12:19.112Z,102408.25
2023-02-13T05:15:22.607Z,102403.28
2023-02-13T05:18:24.330Z,102400.47
2023-02-13T05:21:44.884Z,102403.31
2023-02-13T05:24:46.531Z,102403.31
2023-02-13T05:27:50.355Z,102409.41
2023-02-13T05:30:52.173Z,102401.00
2023-02-13T05:33:53.905Z,102409.38
2023-02-13T05:36:55.908Z,102409.69
2023-02-13T05:39:57.634Z,102411.41
2023-02-13T05:43:01.621Z,102397.28
2023-02-13T05:46:04.586Z,102394.59
2023-02-13T05:49:06.875Z,102393.47
2023-02-13T05:52:08.594Z,102403.28
2023-02-13T05:55:10.327Z,102402.13
2023-02-13T05:58:13.419Z,102403.84
2023-02-13T06:01:15.175Z,102399.22
2023-02-13T06:04:16.899Z,102395.41
2023-02-13T06:07:18.674Z,102405.63
2023-02-13T06:10:20.305Z,102401.22
2023-02-13T06:13:23.410Z,102404.69
2023-02-13T06:16:25.434Z,102404.81
2023-02-13T06:19:27.382Z,102416.75
2023-02-13T06:22:29.117Z,102404.00
2023-02-13T06:25:30.875Z,102412.69
2023-02-13T06:28:34.266Z,102422.19
2023-02-13T06:31:36.222Z,102412.56
2023-02-13T06:34:37.934Z,102415.06
2023-02-13T06:37:39.753Z,102412.09
2023-02-13T06:40:41.430Z,102414.75
2023-02-13T06:43:44.592Z,102419.91
2023-02-13T06:46:46.292Z,102414.25
2023-02-13T06:49:47.982Z,102422.94
2023-02-13T06:52:51.812Z,102425.94
2023-02-13T06:55:54.319Z,102429.22
2023-02-13T06:58:57.401Z,102433.38
2023-02-13T07:01:59.139Z,102418.91
2023-02-13T07:05:01.469Z,102429.94
2023-02-13T07:08:03.314Z,102440.81
2023-02-13T07:11:05.231Z,102436.31
2023-02-13T07:14:09.060Z,102429.88
2023-02-13T07:17:11.213Z,102433.47
2023-02-13T07:20:13.487Z,102435.63
2023-02-13T07:23:15.245Z,102443.06
2023-02-13T07:26:17.135Z,102449.78
2023-02-13T07:29:20.279Z,102441.66
2023-02-13T07:32:21.959Z,102447.19
2023-02-13T07:35:24.922Z,102445.50
2023-02-13T07:38:26.574Z,102441.97
2023-02-13T07:41:28.222Z,102448.38
2023-02-13T07:44:32.022Z,102446.47
2023-02-13T07:47:33.933Z,102442.78
2023-02-13T07:50:35.697Z,102453.63
2023-02-13T07:53:37.518Z,102447.38
2023-02-13T07:56:39.323Z,102443.56
2023-02-13T07:59:42.520Z,102446.31
2023-02-13T08:02:44.416Z,102447.88
2023-02-13T08:05:48.253Z,102449.06
2023-02-13T08:09:09.959Z,102445.06
2023-02-13T08:12:11.837Z,102453.63
2023-02-13T08:15:15.831Z,102455.53
2023-02-13T08:18:18.991Z,102460.66
2023-02-13T08:21:21.759Z,102452.06
2023-02-13T08:24:23.824Z,102462.25
2023-02-13T08:27:25.701Z,102455.06
2023-02-13T08:30:29.909Z,102454.53
2023-02-13T08:33:31.658Z,102459.94
2023-02-13T08:36:33.480Z,102461.41
2023-02-13T08:39:35.349Z,102458.28
2023-02-13T08:42:37.245Z,102462.13
2023-02-13T08:45:40.574Z,102454.63
2023-02-13T08:48:42.386Z,102452.78
2023-02-13T08:51:44.344Z,102454.88
2023-02-13T08:54:46.041Z,102454.25
2023-02-13T08:57:48.112Z,102450.72
2023-02-13T09:00:51.301Z,102445.34
2023-02-13T09:03:53.363Z,102441.19
2023-02-13T09:06:56.054Z,102442.03
2023-02-13T09:09:57.859Z,102444.66
2023-02-13T09:13:01.520Z,102444.97
2023-02-13T09:16:06.683Z,102440.78
2023-02-13T09:19:08.574Z,102438.94
2023-02-13T09:22:10.338Z,102438.44
2023-02-13T09:25:12.136Z,102442.25
2023-02-13T09:28:13.903Z,102440.56
2023-02-13T09:31:19.557Z,102434.16
2023-02-13T09:34:21.498Z,102429.91
2023-02-13T09:37:23.398Z,102439.53
2023-02-13T09:43:55.744Z,102430.94
2023-02-13T09:47:00.912Z,102438.91
2023-02-13T09:50:03.380Z,102438.34
2023-02-13T09:53:05.116Z,102442.31
2023-02-13T09:56:14.638Z,102444.28
2023-02-13T09:59:33.598Z,102437.50
2023-02-13T10:02:47.608Z,102441.28
2023-02-13T10:06:00.166Z,102443.34
2023-02-13T10:09:13.002Z,102433.09
2023-02-13T10:12:26.271Z,102440.16
2023-02-13T10:15:34.247Z,102435.59
2023-02-13T10:18:45.274Z,102428.09
2023-02-13T10:21:52.980Z,102428.84
2023-02-13T10:25:00.465Z,102428.75
2023-02-13T10:28:10.318Z,102433.47
2023-02-13T10:31:15.971Z,102427.50
2023-02-13T10:34:22.454Z,102422.72
2023-02-13T10:37:24.160Z,102426.09
2023-02-13T10:40:31.984Z,102421.88
2023-02-13T10:43:44.572Z,102418.81
2023-02-13T10:46:55.980Z,102406.41
2023-02-13T10:50:20.471Z,102407.38
2023-02-13T10:53:33.882Z,102410.38
2023-02-13T10:56:43.835Z,102403.69
2023-02-13T10:59:56.747Z,102403.53
2023-02-13T11:02:59.743Z,102402.03
2023-02-13T11:06:09.083Z,102393.56
2023-02-13T11:09:13.385Z,102392.31
2023-02-13T11:12:27.009Z,102393.66
2023-02-13T11:15:30.406Z,102386.25
2023-02-13T11:18:34.653Z,102384.44
2023-02-13T11:21:38.580Z,102380.41
2023-02-13T11:24:42.100Z,102377.50
2023-02-13T11:27:45.135Z,102374.00
2023-02-13T11:30:48.922Z,102381.88
2023-02-13T11:33:51.265Z,102371.22
2023-02-13T11:37:14.045Z,102364.88
2023-02-13T11:40:30.638Z,102361.16
2023-02-13T11:43:36.843Z,102361.06
2023-02-13T11:46:46.208Z,102356.84
2023-02-13T11:49:48.031Z,102356.47
2023-02-13T11:52:57.303Z,102359.59
2023-02-13T11:56:06.007Z,102353.44
2023-02-13T11:59:13.916Z,102357.59
2023-02-13T12:02:19.283Z,102353.47
2023-02-13T12:05:23.830Z,102356.56
2023-02-13T12:08:27.720Z,102356.31
2023-02-13T12:11:38.742Z,102352.38
2023-02-13T12:14:45.291Z,102348.59
2023-02-13T12:17:52.253Z,102342.81
2023-02-13T12:21:00.004Z,102345.56
2023-02-13T12:24:11.944Z,102347.84
2023-02-13T12:27:23.949Z,102344.94
2023-02-13T12:30:41.779Z,102340.91
2023-02-13T12:34:11.368Z,102349.19
2023-02-13T12:37:21.866Z,102334.66
2023-02-13T12:40:39.446Z,102335.41
2023-02-13T12:44:03.204Z,102336.66
2023-02-13T12:47:15.544Z,102329.25
2023-02-13T12:50:32.226Z,102323.56
2023-02-13T12:54:01.742Z,102316.25
2023-02-13T12:57:19.864Z,102309.28
2023-02-13T13:00:35.603Z,102318.78
2023-02-13T13:03:50.347Z,102312.78
2023-02-13T13:07:19.358Z,102311.13
2023-02-13T13:10:39.568Z,102307.31
2023-02-13T13:13:53.931Z,102310.34
2023-02-13T13:17:03.933Z,102296.28
2023-02-13T13:20:29.668Z,102294.94
2023-02-13T13:23:34.894Z,102291.63
2023-02-13T13:26:40.916Z,102286.03
2023-02-13T13:29:48.881Z,102286.97
2023-02-13T13:32:56.612Z,102292.63
2023-02-13T13:36:05.380Z,102288.66
2023-02-13T13:39:20.014Z,102276.06
2023-02-13T13:42:32.725Z,102282.19
2023-02-13T13:45:47.587Z,102270.13
2023-02-13T13:49:06.160Z,102276.66
2023-02-13T13:52:21.005Z,102268.69
2023-02-13T13:55:56.414Z,102265.13
2023-02-13T13:58:58.841Z,102264.81
2023-02-13T14:02:42.802Z,102255.94
2023-02-13T14:06:00.823Z,102257.63
2023-02-13T14:09:22.792Z,102246.72
2023-02-13T14:12:38.187Z,102252.25
2023-02-13T14:15:52.253Z,102250.25
2023-02-13T14:18:54.046Z,102244.88
2023-02-13T14:22:28.002Z,102237.56
2023-02-13T14:25:32.280Z,102230.38
2023-02-13T14:28:34.152Z,102235.22
2023-02-13T14:31:39.467Z,102226.84
2023-02-13T14:34:42.334Z,102220.50
2023-02-13T14:37:52.307Z,102223.66
2023-02-13T14:40:54.699Z,102225.06
2023-02-13T14:43:56.562Z,102234.94
2023-02-13T14:47:01.729Z,102221.34
2023-02-13T14:50:05.767Z,102220.88
2023-02-13T14:53:16.892Z,102227.31
2023-02-13T14:56:22.690Z,102221.13
2023-02-13T14:59:29.026Z,102221.56
2023-02-13T15:02:35.553Z,102221.16
2023-02-13T15:05:37.559Z,102212.09
2023-02-13T15:08:47.031Z,102215.84
2023-02-13T15:11:49.267Z,102217.00
2023-02-13T15:14:51.434Z,102214.75
2023-02-13T15:17:57.601Z,102225.72
2023-02-13T15:21:01.331Z,102212.63
2023-02-13T15:24:05.014Z,102211.72
2023-02-13T15:27:16.472Z,102220.81
2023-02-13T15:30:21.506Z,102225.94
2023-02-13T15:33:25.533Z,102225.28
2023-02-13T15:36:35.144Z,102214.78
2023-02-13T15:39:38.243Z,102218.78
2023-02-13T15:42:39.969Z,102220.13
2023-02-13T15:45:43.928Z,102219.91
2023-02-13T15:48:47.116Z,102217.53
2023-02-13T15:51:50.228Z,102217.88
2023-02-13T15:54:55.423Z,102216.44
2023-02-13T15:57:59.211Z,102222.22
2023-02-13T16:01:04.311Z,102224.28
2023-02-13T16:04:09.822Z,102210.97
2023-02-13T16:07:13.562Z,102211.16
2023-02-13T16:10:17.733Z,102213.03
2023-02-13T16:13:21.451Z,102206.09
2023-02-13T16:16:24.087Z,102205.94
2023-02-13T16:19:32.864Z,102209.69
2023-02-13T16:22:37.827Z,102205.38
2023-02-13T16:25:41.469Z,102206.50
2023-02-13T16:28:46.476Z,102214.34
2023-02-13T16:31:50.335Z,102212.53
2023-02-13T16:34:54.280Z,102214.25
2023-02-13T16:37:58.711Z,102213.72
2023-02-13T16:41:05.911Z,102215.38
2023-02-13T16:44:22.059Z,102229.72
2023-02-13T16:47:24.884Z,102233.06
2023-02-13T16:50:26.627Z,102237.56
2023-02-13T16:53:28.614Z,102236.88
2023-02-13T16:56:40.448Z,102231.94
2023-02-13T16:59:52.823Z,102241.06
2023-02-13T17:02:54.962Z,102241.50
2023-02-13T17:06:01.141Z,102245.78
2023-02-13T17:09:02.957Z,102252.81
2023-02-13T17:12:13.354Z,102252.56
2023-02-13T17:15:17.610Z,102256.31
2023-02-13T17:18:19.251Z,102262.22
2023-02-13T17:21:21.001Z,102268.13
2023-02-13T17:24:22.850Z,102277.53
2023-02-13T17:27:26.352Z,102277.97
2023-02-13T17:30:31.935Z,102289.78
2023-02-13T17:33:38.273Z,102287.06
2023-02-13T17:36:40.093Z,102284.66
2023-02-13T17:39:42.185Z,102282.84
2023-02-13T17:42:47.080Z,102285.28
2023-02-13T17:45:49.731Z,102291.84
2023-02-13T17:48:51.678Z,102281.88
2023-02-13T17:51:53.890Z,102284.41
2023-02-13T17:54:55.702Z,102287.50
2023-02-13T17:57:59.498Z,102296.25
2023-02-13T18:01:02.026Z,102286.19
2023-02-13T18:04:04.327Z,102292.59
2023-02-13T18:07:06.275Z,102289.06
2023-02-13T18:10:12.975Z,102282.78
2023-02-13T18:13:16.462Z,102288.22
2023-02-13T18:16:18.383Z,102295.59
2023-02-13T18:19:20.276Z,102291.91
2023-02-13T18:22:24.023Z,102291.97
2023-02-13T18:25:25.794Z,102298.94
2023-02-13T18:28:29.818Z,102293.94
2023-02-13T18:31:31.670Z,102295.97
2023-02-13T18:34:33.712Z,102296.69
2023-02-13T18:37:35.926Z,102291.38
2023-02-13T18:40:37.861Z,102284.78
2023-02-13T18:43:41.180Z,102280.41
2023-02-13T18:46:43.174Z,102290.41
2023-02-13T18:49:48.141Z,102302.22
2023-02-13T18:52:50.468Z,102300.00
2023-02-13T18:55:59.556Z,102299.50
2023-02-13T18:59:02.708Z,102303.34
2023-02-13T19:02:05.445Z,102305.06
2023-02-13T19:05:08.725Z,102296.41
2023-02-13T19:08:10.684Z,102297.91
2023-02-13T19:11:17.009Z,102290.09
2023-02-13T19:14:20.593Z,102288.00
2023-02-13T19:17:22.370Z,102289.72
2023-02-13T19:20:24.548Z,102290.00
2023-02-13T19:23:26.614Z,102291.22
2023-02-13T19:26:28.381Z,102297.97
2023-02-13T19:29:31.493Z,102299.56
2023-02-13T19:32:33.492Z,102301.78
2023-02-13T19:35:35.255Z,102301.69
2023-02-13T19:38:37.653Z,102297.66
2023-02-13T19:41:40.626Z,102294.94
2023-02-13T19:44:43.808Z,102298.50
2023-02-13T19:47:45.721Z,102287.00
2023-02-13T19:50:47.472Z,102283.88
2023-02-13T19:53:49.256Z,102284.84
2023-02-13T19:56:51.304Z,102297.19
2023-02-13T19:59:54.564Z,102298.34
2023-02-13T20:03:00.619Z,102299.34
2023-02-13T20:06:04.767Z,102295.88
2023-02-13T20:09:08.766Z,102281.81
2023-02-13T20:12:10.534Z,102283.16
2023-02-13T20:15:13.562Z,102284.25
2023-02-13T20:18:17.229Z,102288.19
2023-02-13T20:21:19.608Z,102284.84
2023-02-13T20:24:21.689Z,102286.59
2023-02-13T20:27:23.686Z,102281.22
2023-02-13T20:30:27.830Z,102290.22
2023-02-13T20:33:29.634Z,102284.34
2023-02-13T20:36:31.780Z,102285.31
2023-02-13T20:39:33.436Z,102289.94
2023-02-13T20:42:35.620Z,102283.97
2023-02-13T20:45:39.031Z,102280.75
2023-02-13T20:48:41.259Z,102290.38
2023-02-13T20:51:43.051Z,102286.59
2023-02-13T20:54:45.169Z,102279.06
2023-02-13T20:57:46.963Z,102274.72
2023-02-13T21:00:50.311Z,102286.13
2023-02-13T21:03:54.629Z,102276.78
2023-02-13T21:06:56.352Z,102267.09
2023-02-13T21:09:57.989Z,102273.72
2023-02-13T21:12:59.745Z,102270.47
2023-02-13T21:16:08.590Z,102273.97
2023-02-13T21:19:14.566Z,102275.28
2023-02-13T21:22:16.297Z,102271.00
2023-02-13T21:25:18.709Z,102275.94
2023-02-13T21:28:20.983Z,102275.69
2023-02-13T21:31:27.881Z,102265.53
2023-02-13T21:34:29.856Z,102269.88
2023-02-13T21:37:31.696Z,102268.16
2023-02-13T21:40:33.360Z,102257.56
2023-02-13T21:43:38.100Z,102265.91
2023-02-13T21:46:42.312Z,102256.59
2023-02-13T21:49:44.140Z,102267.81
2023-02-13T21:52:46.446Z,102255.84
2023-02-13T21:55:48.531Z,102254.63
2023-02-13T21:58:50.339Z,102246.59
2023-02-13T22:01:54.589Z,102250.34
2023-02-13T22:04:56.405Z,102247.78
2023-02-13T22:08:10.288Z,102251.13
2023-02-13T22:11:12.193Z,102254.38
2023-02-13T22:14:17.105Z,102249.31
2023-02-13T22:19:34.627Z,102248.94
2023-02-13T22:22:36.414Z,102251.31
2023-02-13T22:25:38.164Z,102265.94
2023-02-13T22:28:39.837Z,102267.81
2023-02-13T22:31:42.255Z,102268.28
2023-02-13T22:34:45.437Z,102291.16
2023-02-13T22:37:47.119Z,102279.78
2023-02-13T22:40:48.853Z,102276.69
2023-02-13T22:43:51.340Z,102277.84
2023-02-13T22:46:53.888Z,102272.16
2023-02-13T22:49:57.102Z,102278.47
2023-02-13T22:52:59.386Z,102275.63
2023-02-13T22:56:01.860Z,102276.75
2023-02-13T22:59:03.783Z,102288.19
2023-02-13T23:02:06.113Z,102287.84
2023-02-13T23:05:09.402Z,102282.56
2023-02-13T23:08:11.905Z,102278.31
2023-02-13T23:11:34.166Z,102273.56
2023-02-13T23:14:35.812Z,102279.78
2023-02-13T23:17:56.373Z,102280.75
2023-02-13T23:21:05.152Z,102273.06
2023-02-13T23:24:07.346Z,102289.75
2023-02-13T23:27:09.072Z,102287.31
2023-02-13T23:30:14.392Z,102294.94
2023-02-13T23:33:16.256Z,102288.94
2023-02-13T23:36:19.286Z,102293.56
2023-02-13T23:39:21.402Z,102297.91
2023-02-13T23:42:23.208Z,102296.69
2023-02-13T23:45:25.030Z,102299.59
2023-02-13T23:48:26.810Z,102303.78
2023-02-13T23:51:30.241Z,102301.56
2023-02-13T23:54:32.091Z,102300.53
2023-02-13T23:57:33.802Z,102302.63
